Time;durP1;ratioP1;P1;durP2;ratioP2;P2;SDS_P1;SDS_P2;PMS_P1;PMS_P2;Temp;Humidity;BMP_temperature;BMP_pressure;BME280_temperature;BME280_humidity;BME280_pressure;Samples;Min_cycle;Max_cycle;Signal;HPM_P1;HPM_P2
2022/09/16 00:01:20;;;;;;;9.95;2.05;;;;;;;9.19;100.00;154836.34;4936004;28;20070;-82
2022/09/16 00:03:46;;;;;;;7.22;2.00;;;;;;;9.20;100.00;154838.94;4936195;29;20225;-82
2022/09/16 00:06:20;;;;;;;11.85;2.28;;;;;;;9.16;100.00;154828.69;4951470;28;20031;-78
2022/09/16 00:08:47;;;;;;;10.57;1.88;;;;;;;9.22;100.00;154842.78;4950781;28;20046;-80
2022/09/16 00:11:14;;;;;;;10.82;2.05;;;;;;;9.24;100.00;154847.91;4938561;28;20133;-81
2022/09/16 00:13:40;;;;;;;9.82;1.90;;;;;;;9.21;100.00;154841.53;4950597;28;20389;-82
2022/09/16 00:16:15;;;;;;;11.75;2.35;;;;;;;9.24;100.00;154847.91;4924926;29;20038;-81
2022/09/16 00:18:40;;;;;;;7.00;1.73;;;;;;;9.15;100.00;154826.09;4942946;28;20138;-83
2022/09/16 00:21:08;;;;;;;9.45;1.65;;;;;;;9.12;100.00;154819.72;4938827;28;20113;-80
2022/09/16 00:23:35;;;;;;;11.43;2.00;;;;;;;9.02;100.00;154794.06;4936508;28;20153;-80
2022/09/16 00:26:01;;;;;;;4.93;1.67;;;;;;;8.92;100.00;154769.72;4945578;29;20078;-81
2022/09/16 00:28:26;;;;;;;8.50;2.08;;;;;;;8.90;100.00;154763.31;4938250;28;20043;-80
2022/09/16 00:30:52;;;;;;;9.00;1.75;;;;;;;8.73;100.00;154722.31;4947986;28;20034;-81
2022/09/16 00:33:18;;;;;;;12.75;2.10;;;;;;;8.76;100.00;154730.00;4938477;28;20167;-83
2022/09/16 00:35:45;;;;;;;9.65;1.73;;;;;;;8.71;100.00;154715.91;4920230;29;20040;-82
2022/09/16 00:38:11;;;;;;;11.40;1.75;;;;;;;8.77;100.00;154731.28;4924514;28;20043;-80
2022/09/16 00:40:46;;;;;;;6.07;1.58;;;;;;;8.72;100.00;154718.44;4938270;29;20039;-82
2022/09/16 00:43:13;;;;;;;9.27;1.65;;;;;;;8.64;100.00;154699.22;4955486;28;20043;-81
2022/09/16 00:45:40;;;;;;;7.22;1.90;;;;;;;8.54;100.00;154673.63;4938534;29;20117;-82
2022/09/16 00:48:12;;;;;;;6.43;1.70;;;;;;;8.65;100.00;154701.81;4951802;28;20046;-83
2022/09/16 00:50:44;;;;;;;7.10;1.80;;;;;;;8.66;100.00;154703.09;4938104;28;20043;-82
2022/09/16 00:53:16;;;;;;;9.30;2.10;;;;;;;8.82;100.00;154742.84;4933766;28;20320;-84
2022/09/16 00:55:42;;;;;;;7.60;2.03;;;;;;;9.02;100.00;154794.06;4921221;29;20356;-82
2022/09/16 00:58:21;;;;;;;15.02;2.40;;;;;;;9.19;100.00;154836.34;4956810;28;20043;-82
2022/09/16 01:00:48;;;;;;;11.35;2.83;;;;;;;9.32;100.00;154869.72;4928621;29;20123;-83
2022/09/16 01:03:13;;;;;;;9.88;2.22;;;;;;;9.48;100.00;154908.19;4952040;28;20063;-82
2022/09/16 01:05:39;;;;;;;16.67;2.13;;;;;;;9.41;100.00;154891.50;4921265;29;20130;-84
2022/09/16 01:08:05;;;;;;;9.35;2.00;;;;;;;9.35;100.00;154877.38;4944394;28;20043;-81
2022/09/16 01:10:30;;;;;;;11.13;2.00;;;;;;;9.35;100.00;154877.38;4953001;28;20047;-83
2022/09/16 01:13:01;;;;;;;10.80;1.63;;;;;;;9.43;100.00;154896.59;4925836;29;20041;-83
2022/09/16 01:15:52;;;;;;;7.55;1.80;;;;;;;9.33;100.00;154871.00;4943372;28;20046;-84
2022/09/16 01:18:34;;;;;;;7.65;1.70;;;;;;;9.29;100.00;154860.75;4936898;28;20075;-84
2022/09/16 01:21:22;;;;;;;8.05;1.67;;;;;;;9.31;100.00;154865.88;4918335;29;20039;-82
2022/09/16 01:24:18;;;;;;;9.18;1.70;;;;;;;9.35;100.00;154876.13;4936403;29;20042;-82
2022/09/16 01:26:55;;;;;;;9.00;1.52;;;;;;;9.35;100.00;154877.38;4928286;29;20036;-81
2022/09/16 01:29:49;;;;;;;13.52;1.80;;;;;;;9.47;100.00;154905.59;4920600;28;20261;-82
2022/09/16 01:32:28;;;;;;;9.00;2.10;;;;;;;9.43;100.00;154896.59;4932854;28;20069;-82
2022/09/16 01:35:07;;;;;;;8.00;1.70;;;;;;;9.42;100.00;154892.75;4943697;29;20048;-81
2022/09/16 01:37:55;;;;;;;11.02;2.10;;;;;;;9.40;100.00;154888.94;4951613;28;20573;-83
2022/09/16 01:40:39;;;;;;;11.20;1.80;;;;;;;9.31;100.00;154867.13;4953036;28;20122;-82
2022/09/16 01:43:05;;;;;;;8.20;1.92;;;;;;;9.22;100.00;154844.06;4953768;28;20047;-80
2022/09/16 01:45:51;;;;;;;7.60;1.63;;;;;;;9.15;100.00;154827.44;4948671;28;20039;-83
2022/09/16 01:48:40;;;;;;;6.97;1.45;;;;;;;9.06;100.00;154804.34;4953806;28;20050;-83
2022/09/16 01:51:12;;;;;;;8.55;2.00;;;;;;;8.94;100.00;154773.56;4963009;28;20043;-82
2022/09/16 01:53:47;;;;;;;7.45;1.63;;;;;;;9.01;100.00;154790.25;4959034;28;20062;-80
2022/09/16 01:56:21;;;;;;;7.50;1.70;;;;;;;8.98;100.00;154782.53;4932267;28;20043;-80
2022/09/16 01:59:03;;;;;;;10.82;2.10;;;;;;;9.07;100.00;154805.63;4917140;29;20046;-82
2022/09/16 02:01:36;;;;;;;6.40;1.83;;;;;;;9.11;100.00;154815.88;4953747;28;20036;-83
2022/09/16 02:04:09;;;;;;;7.10;2.25;;;;;;;9.09;100.00;154810.75;4961765;28;20039;-83
2022/09/16 02:06:37;;;;;;;8.63;1.90;;;;;;;9.20;100.00;154837.66;4917601;29;20039;-81
2022/09/16 02:09:13;;;;;;;8.25;2.40;;;;;;;9.14;100.00;154823.56;4944301;28;20133;-84
2022/09/16 02:11:43;;;;;;;7.55;2.10;;;;;;;9.16;100.00;154829.97;4953648;28;20039;-83
2022/09/16 02:14:14;;;;;;;9.25;2.25;;;;;;;9.14;100.00;154823.56;4939615;29;20098;-84
2022/09/16 02:16:54;;;;;;;7.57;2.30;;;;;;;9.08;100.00;154808.16;4947476;28;20405;-80
2022/09/16 02:19:25;;;;;;;9.60;2.15;;;;;;;9.08;100.00;154808.16;4929980;28;20062;-83
2022/09/16 02:21:54;;;;;;;12.40;2.60;;;;;;;9.00;100.00;154787.66;4949475;28;20047;-81
2022/09/16 02:24:21;;;;;;;8.73;2.10;;;;;;;8.91;100.00;154767.19;4927946;28;20039;-81
2022/09/16 02:27:15;;;;;;;9.45;2.50;;;;;;;8.89;100.00;154760.75;4923843;28;20034;-83
2022/09/16 02:30:06;;;;;;;8.48;2.30;;;;;;;8.83;100.00;154745.38;4920750;29;20533;-81
2022/09/16 02:32:37;;;;;;;13.25;2.45;;;;;;;8.70;100.00;154713.31;4945579;28;20053;-83
2022/09/16 02:35:07;;;;;;;7.40;2.30;;;;;;;8.93;100.00;154771.03;4937482;28;20448;-83
2022/09/16 02:37:44;;;;;;;6.45;2.10;;;;;;;8.95;100.00;154776.16;4934945;28;20416;-83
2022/09/16 02:40:16;;;;;;;8.98;2.40;;;;;;;8.98;100.00;154782.53;4936184;29;20548;-81
2022/09/16 02:42:42;;;;;;;7.68;1.88;;;;;;;8.91;100.00;154765.88;4950354;28;20050;-80
2022/09/16 02:45:08;;;;;;;15.60;2.50;;;;;;;8.93;100.00;154772.28;4954370;28;20039;-82
2022/09/16 02:47:56;;;;;;;7.03;2.03;;;;;;;8.98;100.00;154782.53;4949686;28;20027;-81
2022/09/16 02:50:31;;;;;;;11.35;2.20;;;;;;;9.01;100.00;154790.25;4930215;28;20051;-82
2022/09/16 02:53:06;;;;;;;9.95;2.28;;;;;;;9.10;100.00;154813.31;4926770;29;20046;-80
2022/09/16 02:55:52;;;;;;;7.68;2.05;;;;;;;9.20;100.00;154837.66;4919413;28;20035;-83
2022/09/16 02:58:18;;;;;;;11.35;2.22;;;;;;;9.26;100.00;154854.31;4935561;28;20038;-83
2022/09/16 03:00:51;;;;;;;13.55;2.15;;;;;;;9.29;100.00;154860.75;4951428;28;20445;-82
2022/09/16 03:03:17;;;;;;;6.80;1.85;;;;;;;9.30;100.00;154864.56;4934744;28;20441;-82
2022/09/16 03:06:05;;;;;;;7.80;2.00;;;;;;;9.21;100.00;154841.53;4930619;29;20039;-82
2022/09/16 03:08:33;;;;;;;9.40;1.85;;;;;;;9.12;100.00;154818.44;4942421;28;20502;-85
2022/09/16 03:11:16;;;;;;;9.38;1.88;;;;;;;9.00;100.00;154787.66;4916953;29;20050;-83
2022/09/16 03:14:01;;;;;;;12.85;1.92;;;;;;;8.92;100.00;154769.72;4919440;29;20040;-82
2022/09/16 03:16:39;;;;;;;13.13;1.83;;;;;;;8.80;100.00;154738.97;4948280;28;20031;-84
2022/09/16 03:19:11;;;;;;;7.22;1.92;;;;;;;8.71;100.00;154717.19;4934963;29;20528;-83
2022/09/16 03:21:58;;;;;;;5.97;1.92;;;;;;;8.73;100.00;154721.03;4951489;28;20043;-82
2022/09/16 03:24:44;;;;;;;12.15;2.20;;;;;;;8.65;100.00;154700.56;4944972;28;20039;-83
2022/09/16 03:27:19;;;;;;;7.55;1.98;;;;;;;8.66;100.00;154703.09;4930339;29;20039;-84
2022/09/16 03:29:57;;;;;;;7.75;1.95;;;;;;;8.54;100.00;154674.91;4950315;28;20078;-81
2022/09/16 03:32:38;;;;;;;8.77;1.75;;;;;;;8.55;100.00;154677.47;4935805;28;20066;-83
2022/09/16 03:35:14;;;;;;;10.88;2.05;;;;;;;8.57;100.00;154681.34;4940117;29;20046;-81
2022/09/16 03:37:42;;;;;;;9.85;2.03;;;;;;;8.45;100.00;154650.56;4936813;29;20070;-83
2022/09/16 03:40:14;;;;;;;7.10;2.00;;;;;;;8.45;100.00;154651.81;4936472;29;20043;-81
2022/09/16 03:42:42;;;;;;;6.38;1.95;;;;;;;8.34;100.00;154624.91;4945802;29;20106;-82
2022/09/16 03:45:15;;;;;;;8.60;2.13;;;;;;;8.28;100.00;154608.25;4943938;29;20094;-84
2022/09/16 03:47:42;;;;;;;10.57;2.15;;;;;;;8.20;100.00;154589.03;4951128;28;20035;-82
2022/09/16 03:50:08;;;;;;;6.40;2.00;;;;;;;7.98;100.00;154533.94;4951199;28;20138;-80
2022/09/16 03:52:34;;;;;;;11.93;2.08;;;;;;;8.20;100.00;154589.03;4944874;28;20133;-81
2022/09/16 03:54:59;;;;;;;11.57;1.85;;;;;;;8.12;100.00;154568.56;4964114;28;20460;-81
2022/09/16 03:57:27;;;;;;;6.75;1.85;;;;;;;8.13;100.00;154571.09;4945010;28;20039;-82
2022/09/16 03:59:52;;;;;;;9.10;1.88;;;;;;;7.98;100.00;154533.94;4945327;28;20050;-83
2022/09/16 04:02:18;;;;;;;8.93;2.13;;;;;;;8.06;100.00;154553.16;4926744;28;20042;-81
2022/09/16 04:04:44;;;;;;;8.65;2.08;;;;;;;8.18;100.00;154585.19;4936807;29;20035;-82
2022/09/16 04:07:10;;;;;;;4.70;2.20;;;;;;;8.29;100.00;154612.09;4942955;29;20036;-83
2022/09/16 04:09:36;;;;;;;7.20;2.30;;;;;;;8.38;100.00;154635.16;4949464;28;20141;-81
2022/09/16 04:12:02;;;;;;;7.72;2.58;;;;;;;8.47;100.00;154656.94;4958243;28;20516;-83
2022/09/16 04:14:28;;;;;;;11.10;3.00;;;;;;;8.58;100.00;154685.13;4951663;28;20074;-82
2022/09/16 04:16:54;;;;;;;9.02;3.00;;;;;;;8.69;100.00;154712.06;4939750;28;20141;-81
2022/09/16 04:19:20;;;;;;;5.55;2.78;;;;;;;8.71;100.00;154715.91;4921038;28;20150;-81
2022/09/16 04:21:45;;;;;;;8.05;2.50;;;;;;;8.71;100.00;154715.91;4934514;28;20428;-82
2022/09/16 04:24:12;;;;;;;8.10;2.90;;;;;;;8.74;100.00;154723.63;4939385;28;20122;-83
2022/09/16 04:26:37;;;;;;;6.57;2.50;;;;;;;8.69;100.00;154710.78;4939301;28;20035;-84
2022/09/16 04:29:03;;;;;;;7.55;2.47;;;;;;;8.65;100.00;154700.56;4931338;28;20039;-80
2022/09/16 04:31:28;;;;;;;5.78;2.30;;;;;;;8.60;100.00;154687.72;4936191;28;20063;-83
2022/09/16 04:33:54;;;;;;;8.75;2.78;;;;;;;8.61;100.00;154690.25;4925533;28;20042;-82
2022/09/16 04:36:20;;;;;;;13.43;2.53;;;;;;;8.51;100.00;154667.25;4958469;28;20045;-82
2022/09/16 04:38:47;;;;;;;9.85;2.60;;;;;;;8.56;100.00;154678.75;4945134;29;20035;-84
2022/09/16 04:41:23;;;;;;;12.88;2.42;;;;;;;8.57;100.00;154681.34;4959022;28;20520;-84
2022/09/16 04:43:54;;;;;;;7.15;2.08;;;;;;;8.61;100.00;154691.56;4946823;29;20498;-81
2022/09/16 04:46:21;;;;;;;9.00;2.00;;;;;;;8.45;100.00;154651.81;4939576;28;20027;-81
2022/09/16 04:48:48;;;;;;;8.60;2.15;;;;;;;8.38;100.00;154635.16;4921469;28;20486;-82
2022/09/16 04:51:14;;;;;;;6.18;2.00;;;;;;;8.38;100.00;154635.16;4920942;29;20493;-81
2022/09/16 04:53:44;;;;;;;6.82;2.10;;;;;;;8.28;100.00;154609.50;4960890;28;20476;-82
2022/09/16 04:56:15;;;;;;;10.20;2.20;;;;;;;8.19;100.00;154586.44;4937705;28;20035;-83
2022/09/16 04:58:42;;;;;;;7.82;1.80;;;;;;;8.09;100.00;154560.84;4955814;28;20046;-82
2022/09/16 05:01:11;;;;;;;6.65;2.47;;;;;;;8.02;100.00;154544.16;4933975;29;20035;-81
2022/09/16 05:03:49;;;;;;;9.95;2.40;;;;;;;7.98;100.00;154533.94;4956452;28;20043;-81
2022/09/16 05:06:20;;;;;;;5.65;2.42;;;;;;;8.04;100.00;154548.03;4941429;28;20528;-82
2022/09/16 05:08:47;;;;;;;9.60;2.42;;;;;;;8.04;100.00;154549.28;4944406;28;20035;-81
2022/09/16 05:11:15;;;;;;;6.80;2.40;;;;;;;8.04;100.00;154548.03;4929786;28;20070;-82
2022/09/16 05:13:41;;;;;;;10.90;2.80;;;;;;;8.14;100.00;154573.66;4928683;29;20040;-82
2022/09/16 05:16:09;;;;;;;9.15;2.20;;;;;;;8.08;100.00;154559.56;4924240;29;20393;-83
2022/09/16 05:18:36;;;;;;;11.38;2.70;;;;;;;8.11;100.00;154567.22;4959294;28;20045;-83
2022/09/16 05:21:05;;;;;;;8.23;2.40;;;;;;;8.13;100.00;154572.34;4924682;29;20228;-83
2022/09/16 05:23:31;;;;;;;9.70;2.47;;;;;;;8.20;100.00;154589.03;4965364;28;20122;-82
2022/09/16 05:26:11;;;;;;;11.60;2.53;;;;;;;8.43;100.00;154646.72;4928147;28;20034;-84
2022/09/16 05:28:38;;;;;;;9.00;2.30;;;;;;;8.39;100.00;154637.69;4931233;28;20572;-84
2022/09/16 05:31:16;;;;;;;9.80;2.67;;;;;;;8.50;100.00;154664.66;4928396;28;20078;-82
2022/09/16 05:33:44;;;;;;;10.88;2.25;;;;;;;8.51;100.00;154665.94;4938743;29;20043;-84
2022/09/16 05:36:16;;;;;;;10.68;2.40;;;;;;;8.56;100.00;154680.03;4941168;28;20031;-80
2022/09/16 05:38:42;;;;;;;9.10;2.47;;;;;;;8.59;100.00;154686.44;4936717;29;20054;-84
2022/09/16 05:41:09;;;;;;;8.02;2.72;;;;;;;8.60;100.00;154689.00;4944856;28;20054;-83
2022/09/16 05:43:35;;;;;;;11.10;2.67;;;;;;;8.57;100.00;154682.59;4921288;28;20050;-82
2022/09/16 05:46:03;;;;;;;11.85;2.97;;;;;;;8.65;100.00;154701.81;4936030;28;20038;-84
2022/09/16 05:48:29;;;;;;;6.80;2.30;;;;;;;8.63;100.00;154695.44;4928947;28;20093;-83
2022/09/16 05:51:01;;;;;;;5.95;2.30;;;;;;;8.69;100.00;154712.06;4954366;28;20039;-83
2022/09/16 05:53:28;;;;;;;13.18;3.50;;;;;;;8.68;100.00;154708.22;4955871;28;20060;-82
2022/09/16 05:56:00;;;;;;;16.88;2.90;;;;;;;8.71;100.00;154715.91;4956558;28;20070;-82
2022/09/16 05:58:28;;;;;;;9.82;3.40;;;;;;;8.66;100.00;154703.09;4940331;28;20047;-83
2022/09/16 06:00:58;;;;;;;12.98;2.97;;;;;;;8.74;100.00;154724.88;4917129;29;20102;-82
2022/09/16 06:03:25;;;;;;;9.15;2.90;;;;;;;8.73;100.00;154721.03;4958299;28;20040;-83
2022/09/16 06:05:51;;;;;;;10.32;2.65;;;;;;;8.78;100.00;154733.84;4933739;28;20484;-83
2022/09/16 06:08:17;;;;;;;12.55;2.60;;;;;;;8.81;100.00;154741.53;4938313;28;20050;-82
2022/09/16 06:10:42;;;;;;;11.05;2.80;;;;;;;8.85;100.00;154751.75;4921038;29;20130;-80
2022/09/16 06:13:08;;;;;;;11.68;2.90;;;;;;;9.06;100.00;154804.34;4936217;29;20039;-83
2022/09/16 06:15:34;;;;;;;11.15;2.85;;;;;;;9.26;100.00;154854.31;4958876;28;20130;-80
2022/09/16 06:18:01;;;;;;;13.30;2.70;;;;;;;9.41;100.00;154891.50;4943210;29;20043;-81
2022/09/16 06:20:27;;;;;;;9.88;2.40;;;;;;;9.54;100.00;154924.81;4936318;28;20047;-82
2022/09/16 06:22:52;;;;;;;11.48;2.42;;;;;;;9.66;100.00;154954.34;4918589;29;20130;-81
2022/09/16 06:25:18;;;;;;;10.85;2.40;;;;;;;9.86;100.00;155004.31;4937159;28;20564;-81
2022/09/16 06:27:44;;;;;;;13.45;2.42;;;;;;;10.02;100.00;155044.09;4940550;28;20038;-82
2022/09/16 06:30:10;;;;;;;8.40;2.20;;;;;;;10.14;100.00;155073.59;4932136;29;20047;-80
2022/09/16 06:32:36;;;;;;;10.18;2.38;;;;;;;10.19;100.00;155086.44;4921665;29;20078;-79
2022/09/16 06:35:02;;;;;;;8.23;1.83;;;;;;;10.37;100.00;155131.34;4943495;28;20066;-79
2022/09/16 06:37:27;;;;;;;9.10;1.80;;;;;;;10.46;100.00;155153.16;4964507;28;20067;-81
2022/09/16 06:39:53;;;;;;;12.88;2.22;;;;;;;10.45;100.00;155151.91;4951709;28;20708;-78
2022/09/16 06:42:19;;;;;;;7.53;1.73;;;;;;;10.50;100.00;155163.44;4963277;28;20046;-81
2022/09/16 06:44:45;;;;;;;9.35;1.88;;;;;;;10.54;100.00;155173.69;4935227;29;20039;-79
2022/09/16 06:47:11;;;;;;;12.25;1.80;;;;;;;10.60;100.00;155187.78;4947273;28;20118;-79
2022/09/16 06:49:36;;;;;;;13.95;1.80;;;;;;;10.58;100.00;155182.66;4930708;28;20134;-79
2022/09/16 06:52:02;;;;;;;10.15;1.52;;;;;;;10.62;100.00;155192.91;4941007;29;20047;-79
2022/09/16 06:54:27;;;;;;;12.35;1.67;;;;;;;10.71;100.00;155217.28;4950253;28;20123;-82
2022/09/16 06:56:53;;;;;;;10.57;2.30;;;;;;;10.80;100.00;155239.13;4924241;28;20142;-82
2022/09/16 06:59:19;;;;;;;7.88;1.48;;;;;;;10.89;100.00;155262.22;4922138;28;20439;-81
2022/09/16 07:01:44;;;;;;;9.80;1.60;;;;;;;10.99;100.00;155286.59;4947047;28;20039;-79
2022/09/16 07:04:12;;;;;;;10.43;1.40;;;;;;;11.14;100.00;155323.81;4945208;29;20037;-82
2022/09/16 07:06:38;;;;;;;10.80;1.42;;;;;;;11.16;100.00;155328.94;4949102;28;20069;-82
2022/09/16 07:09:03;;;;;;;11.15;1.50;;;;;;;11.23;100.00;155346.91;4931735;29;20050;-81
2022/09/16 07:11:29;;;;;;;18.45;1.75;;;;;;;11.27;100.00;155357.19;4951495;28;20061;-81
2022/09/16 07:13:54;;;;;;;8.02;1.23;;;;;;;11.45;100.00;155402.13;4931500;29;20043;-82
2022/09/16 07:16:22;;;;;;;12.02;1.33;;;;;;;11.57;100.00;155431.63;4954658;28;20041;-80
2022/09/16 07:18:53;;;;;;;15.02;1.67;;;;;;;11.64;100.00;155448.31;4930297;28;20065;-80
2022/09/16 07:21:23;;;;;;;9.77;1.55;;;;;;;11.64;100.00;155449.63;4959603;28;20096;-79
2022/09/16 07:23:49;;;;;;;9.13;1.48;;;;;;;11.65;100.00;155452.16;4953540;28;20046;-81
2022/09/16 07:26:17;;;;;;;11.27;1.20;;;;;;;11.76;100.00;155479.13;4959563;28;20046;-80
2022/09/16 07:28:47;;;;;;;9.32;1.52;;;;;;;11.87;100.00;155506.13;4948057;29;20035;-79
2022/09/16 07:31:19;;;;;;;5.95;1.10;;;;;;;11.93;100.00;155521.56;4937923;28;20070;-80
2022/09/16 07:33:47;;;;;;;11.20;1.40;;;;;;;11.98;100.00;155533.09;4919864;29;20070;-82
2022/09/16 07:36:18;;;;;;;11.30;1.48;;;;;;;11.95;100.00;155526.69;4956863;28;20027;-79
2022/09/16 07:38:44;;;;;;;11.65;1.52;;;;;;;12.00;100.00;155538.28;4933164;29;20047;-81
2022/09/16 07:41:19;;;;;;;8.45;1.40;;;;;;;12.12;100.00;155569.06;4939296;29;20042;-82
2022/09/16 07:43:46;;;;;;;12.90;1.83;;;;;;;12.16;100.00;155579.34;4950161;28;20382;-81
2022/09/16 07:46:15;;;;;;;6.75;1.20;;;;;;;12.26;100.00;155603.72;4939420;28;20098;-81
2022/09/16 07:48:42;;;;;;;11.18;1.40;;;;;;;12.24;100.00;155598.59;4950575;29;20078;-82
2022/09/16 07:51:14;;;;;;;8.82;1.17;;;;;;;12.29;100.00;155611.44;4945423;29;20043;-83
2022/09/16 07:53:40;;;;;;;9.20;1.52;;;;;;;12.42;100.00;155644.84;4934129;28;20026;-79
2022/09/16 07:56:19;;;;;;;13.40;1.95;;;;;;;12.61;100.00;155692.34;4978614;28;20039;-77
2022/09/16 07:58:45;;;;;;;7.82;1.35;;;;;;;12.78;100.00;155734.75;4967286;28;20505;-78
2022/09/16 08:01:13;;;;;;;10.73;1.45;;;;;;;12.92;100.00;155768.16;4962992;28;20073;-79
2022/09/16 08:03:40;;;;;;;8.15;1.40;;;;;;;12.93;100.00;155770.75;4922850;29;20043;-81
2022/09/16 08:06:09;;;;;;;7.95;1.35;;;;;;;13.10;100.00;155814.41;4954288;28;20827;-80
2022/09/16 08:08:35;;;;;;;11.95;1.88;;;;;;;13.20;100.00;155838.81;4960704;28;20042;-79
2022/09/16 08:11:02;;;;;;;8.10;1.25;;;;;;;13.19;100.00;155837.56;4943049;29;20051;-79
2022/09/16 08:13:30;;;;;;;7.70;1.15;;;;;;;13.40;100.00;155890.28;4925092;28;20112;-79
2022/09/16 08:16:02;;;;;;;11.75;1.60;;;;;;;13.66;100.00;155953.28;4958959;28;20118;-80
2022/09/16 08:18:27;;;;;;;10.57;1.40;;;;;;;13.69;100.00;155962.25;4937624;28;20477;-80
2022/09/16 08:20:53;;;;;;;9.32;1.45;;;;;;;13.40;100.00;155889.00;4960944;28;20149;-80
2022/09/16 08:23:19;;;;;;;8.32;1.40;;;;;;;13.13;100.00;155820.81;4939303;28;20675;-78
2022/09/16 08:25:45;;;;;;;8.75;1.30;;;;;;;12.79;100.00;155736.03;4942921;29;20178;-80
2022/09/16 08:28:16;;;;;;;6.93;1.25;;;;;;;12.79;100.00;155737.34;4928604;28;20031;-78
2022/09/16 08:30:42;;;;;;;6.53;1.25;;;;;;;12.85;100.00;155752.75;4963263;28;20196;-79
2022/09/16 08:33:08;;;;;;;7.70;1.25;;;;;;;13.03;100.00;155796.41;4955207;28;20046;-81
2022/09/16 08:35:35;;;;;;;10.40;1.77;;;;;;;13.09;100.00;155811.88;4939441;28;20042;-80
2022/09/16 08:38:00;;;;;;;7.07;1.27;;;;;;;13.17;100.00;155831.16;4947447;28;20501;-80
2022/09/16 08:40:31;;;;;;;9.90;1.60;;;;;;;13.32;100.00;155868.47;4943677;28;20035;-82
2022/09/16 08:43:38;;;;;;;9.90;1.38;;;;;;;13.47;100.00;155905.69;4936799;29;20039;-80
2022/09/16 08:46:13;;;;;;;8.50;1.25;;;;;;;13.48;100.00;155908.28;4919742;29;20051;-82
2022/09/16 08:48:54;;;;;;;6.72;1.20;;;;;;;13.58;100.00;155935.28;4939498;29;20043;-80
2022/09/16 08:51:21;;;;;;;12.73;1.33;;;;;;;13.76;100.00;155980.25;4947847;28;20101;-81
2022/09/16 08:54:00;;;;;;;12.82;1.48;;;;;;;13.81;100.00;155993.13;4927460;29;20485;-81
2022/09/16 08:56:28;;;;;;;7.63;1.30;;;;;;;13.93;100.00;156021.41;4951535;28;20057;-82
2022/09/16 08:58:57;;;;;;;10.27;1.58;;;;;;;13.94;100.00;156025.28;4918077;29;20110;-80
2022/09/16 09:01:42;;;;;;;10.57;1.40;;;;;;;14.11;100.00;156066.38;4941661;28;20044;-80
2022/09/16 09:04:10;;;;;;;10.75;1.50;;;;;;;14.04;100.00;156048.41;4944764;29;20136;-81
2022/09/16 09:06:58;;;;;;;10.93;1.40;;;;;;;14.01;100.00;156041.97;4930096;28;20039;-78
2022/09/16 09:09:46;;;;;;;10.82;1.30;;;;;;;14.11;100.00;156066.38;4935976;28;20043;-82
2022/09/16 09:12:28;;;;;;;16.35;1.83;;;;;;;14.36;100.00;156130.69;4936189;28;20039;-79
2022/09/16 09:15:03;;;;;;;9.13;1.17;;;;;;;14.37;100.00;156133.28;4931640;29;20471;-80
2022/09/16 09:17:56;;;;;;;7.45;1.38;;;;;;;14.54;100.00;156174.41;4944564;28;20050;-81
2022/09/16 09:20:44;;;;;;;8.30;1.60;;;;;;;15.02;100.00;156294.09;4934887;28;20051;-79
2022/09/16 09:23:33;;;;;;;10.27;1.50;;;;;;;15.18;100.00;156335.25;4953499;28;20547;-78
2022/09/16 09:26:17;;;;;;;12.55;1.60;;;;;;;14.85;100.00;156252.94;4949356;29;20039;-80
2022/09/16 09:28:48;;;;;;;11.00;1.60;;;;;;;14.40;100.00;156139.69;4919920;28;20051;-77
2022/09/16 09:31:33;;;;;;;10.82;1.60;;;;;;;14.06;100.00;156054.81;4946138;28;20030;-79
2022/09/16 09:34:17;;;;;;;9.75;1.40;;;;;;;14.05;100.00;156052.25;4957157;28;20034;-78
2022/09/16 09:37:11;;;;;;;13.25;1.65;;;;;;;14.43;100.00;156146.13;4929456;29;20035;-78
2022/09/16 09:40:00;;;;;;;12.30;1.73;;;;;;;14.27;100.00;156107.53;4955583;28;20046;-77
2022/09/16 09:42:31;;;;;;;10.00;1.55;;;;;;;13.71;100.00;155966.13;4920528;28;20042;-80
2022/09/16 09:45:23;;;;;;;9.10;1.60;;;;;;;13.38;100.00;155885.16;4940915;28;20440;-79
2022/09/16 09:48:09;;;;;;;12.27;1.67;;;;;;;13.09;100.00;155811.88;4948453;28;20078;-79
2022/09/16 09:50:44;;;;;;;6.60;1.40;;;;;;;13.04;100.00;155800.28;4950560;28;20079;-79
2022/09/16 09:53:10;;;;;;;9.65;1.27;;;;;;;13.10;100.00;155814.41;4922675;29;20489;-79
2022/09/16 09:55:36;;;;;;;7.50;1.40;;;;;;;13.21;100.00;155842.69;4946888;28;20069;-79
2022/09/16 09:58:23;;;;;;;6.45;1.17;;;;;;;13.33;100.00;155872.28;4926371;28;20432;-77
2022/09/16 10:00:51;;;;;;;8.85;1.23;;;;;;;13.57;100.00;155931.44;4919938;28;20806;-78
2022/09/16 10:03:18;;;;;;;4.43;0.90;;;;;;;13.56;100.00;155928.84;4934911;28;20121;-78
2022/09/16 10:05:46;;;;;;;5.20;1.08;;;;;;;13.48;100.00;155909.56;4949083;28;20046;-78
2022/09/16 10:08:24;;;;;;;4.85;1.05;;;;;;;13.59;100.00;155936.56;4915480;28;20048;-79
2022/09/16 10:10:53;;;;;;;5.75;0.95;;;;;;;13.79;100.00;155987.97;4941610;28;20042;-78
2022/09/16 10:13:20;;;;;;;5.45;0.95;;;;;;;14.23;100.00;156096.00;4951418;28;20039;-78
2022/09/16 10:15:46;;;;;;;13.07;1.10;;;;;;;14.49;100.00;156162.84;4956379;28;20063;-80
2022/09/16 10:18:26;;;;;;;12.38;2.20;;;;;;;14.75;100.00;156227.22;4960012;28;20055;-79
2022/09/16 10:21:02;;;;;;;9.00;1.30;;;;;;;15.15;100.00;156327.56;4935163;29;20039;-80
2022/09/16 10:23:27;;;;;;;10.30;1.40;;;;;;;15.46;100.00;156406.00;4932386;28;20435;-80
2022/09/16 10:26:27;;;;;;;10.57;1.25;;;;;;;15.61;98.97;156442.06;4956907;28;20042;-79
2022/09/16 10:29:13;;;;;;;9.70;1.30;;;;;;;15.67;94.40;156458.81;4913642;28;20086;-79
2022/09/16 10:31:41;;;;;;;8.52;1.05;;;;;;;15.96;98.16;156532.19;4916507;29;20133;-80
2022/09/16 10:34:25;;;;;;;8.73;1.40;;;;;;;16.11;94.18;156568.25;4954877;28;20404;-78
2022/09/16 10:37:18;;;;;;;9.55;1.40;;;;;;;16.24;99.04;156601.72;4954091;28;20114;-79
2022/09/16 10:39:53;;;;;;;9.40;1.30;;;;;;;16.32;91.60;156622.31;4950272;28;20043;-77
2022/09/16 10:42:24;;;;;;;6.50;1.20;;;;;;;16.39;92.67;156639.06;4958472;28;20035;-77
2022/09/16 10:44:52;;;;;;;7.63;1.33;;;;;;;16.29;86.60;156614.59;4925888;29;20504;-78
2022/09/16 10:47:24;;;;;;;10.50;1.88;;;;;;;16.29;91.31;156613.28;4949479;28;20146;-76
2022/09/16 10:49:54;;;;;;;5.03;1.38;;;;;;;16.42;89.05;156646.75;4964814;28;20043;-80
2022/09/16 10:52:23;;;;;;;7.85;1.42;;;;;;;16.68;91.72;156712.44;4953637;28;20042;-78
2022/09/16 10:54:49;;;;;;;5.90;1.08;;;;;;;16.82;87.22;156747.28;4937803;29;20098;-78
2022/09/16 10:57:27;;;;;;;6.10;1.15;;;;;;;16.88;88.31;156761.44;4950602;28;20056;-77
2022/09/16 11:00:10;;;;;;;9.98;1.00;;;;;;;16.96;84.48;156782.03;4952634;28;20066;-81
2022/09/16 11:02:48;;;;;;;11.38;1.38;;;;;;;16.96;83.08;156780.75;4946218;28;20080;-79
2022/09/16 11:05:32;;;;;;;7.55;1.15;;;;;;;16.93;80.33;156775.63;4919367;28;20772;-77
2022/09/16 11:08:19;;;;;;;10.00;1.40;;;;;;;17.13;83.88;156824.53;4957431;28;20031;-78
2022/09/16 11:11:20;;;;;;;5.80;1.10;;;;;;;17.19;80.53;156838.69;4934000;29;20051;-79
2022/09/16 11:14:01;;;;;;;7.18;1.27;;;;;;;17.39;88.04;156888.97;4929504;29;20055;-77
2022/09/16 11:16:39;;;;;;;6.72;1.10;;;;;;;17.52;86.48;156923.72;4949578;28;20085;-77
2022/09/16 11:19:36;;;;;;;11.48;1.33;;;;;;;17.50;81.88;156918.56;4922764;29;20077;-78
2022/09/16 11:22:16;;;;;;;9.38;1.15;;;;;;;17.43;84.01;156900.53;4959209;28;20090;-78
2022/09/16 11:25:03;;;;;;;8.55;1.27;;;;;;;16.31;91.68;156619.75;4940995;29;20049;-79
2022/09/16 11:27:47;;;;;;;6.20;1.10;;;;;;;15.28;97.93;156361.00;4945406;28;20047;-79
2022/09/16 11:30:16;;;;;;;4.93;0.93;;;;;;;14.98;98.81;156285.09;4942292;28;20505;-78
2022/09/16 11:32:50;;;;;;;4.13;0.80;;;;;;;14.81;100.00;156242.66;4955775;28;20117;-78
2022/09/16 11:35:34;;;;;;;10.45;1.30;;;;;;;14.96;100.00;156279.97;4936028;28;20043;-79
2022/09/16 11:38:17;;;;;;;6.22;0.70;;;;;;;14.96;99.88;156281.22;4938121;29;20063;-79
2022/09/16 11:40:55;;;;;;;8.80;1.08;;;;;;;15.12;100.00;156321.09;4928496;29;20119;-77
2022/09/16 11:43:43;;;;;;;7.00;1.10;;;;;;;15.23;100.00;156348.13;4950914;28;20046;-77